KEMP/EMP METAR and TAF weather

Enter ICAO airport designator
Station Type Date Time Source
KEMP METAR 2018/01/17 05:53 UTC NOAA

KEMP 170553Z AUTO 23003KT 10SM CLR M16/M18 A3069 RMK AO2 SLP422 I1000 I6000 T11611178 11133 21161 411111183 58005


Station Type Date Time Source
KEMP Decoded METAR 2018/01/17 05:53 UTC NOAA

EMPORIA MUNICIPAL AIRPORT, KS, United States (KEMP) 38-20N 96-12W 367M
Jan 17, 2018 - 12:53 AM EST / 2018.01.17 0553 UTC
Wind: from the SW (230 degrees) at 3 MPH (3 KT):0
Visibility: 10 mile(s):0
Sky conditions: clear
Temperature: 3.0 F (-16.1 C)
Dew Point: -0.0 F (-17.8 C)
Relative Humidity: 86%
Pressure (altimeter): 30.69 in. Hg (1039 hPa)
Pressure tendency: 0.01 inches (0.5 hPa) lower than three hours ago
ob: KEMP 170553Z AUTO 23003KT 10SM CLR M16/M18 A3069 RMK AO2 SLP422 I1000 I6000 T11611178 11133 21161 411111183 58005
cycle: 6

Station Type Date Time Source
KEMP TAF UTC NOAA

Error!


Example: see airport list